createdAt,value
2023-05-01T00:00:09.722Z,100279.96
2023-05-01T00:02:56.880Z,100277.02
2023-05-01T00:05:26.983Z,100272.00
2023-05-01T00:07:56.029Z,100267.85
2023-05-01T00:10:24.742Z,100263.06
2023-05-01T00:12:51.252Z,100259.83
2023-05-01T00:15:18.004Z,100269.27
2023-05-01T00:17:47.254Z,100279.83
2023-05-01T00:20:14.322Z,100274.05
2023-05-01T00:22:41.032Z,100271.98
2023-05-01T00:25:12.096Z,100266.30
2023-05-01T00:27:38.994Z,100270.48
2023-05-01T00:30:11.438Z,100274.70
2023-05-01T00:32:38.061Z,100278.48
2023-05-01T00:35:07.681Z,100278.02
2023-05-01T00:37:36.558Z,100275.77
2023-05-01T00:40:04.632Z,100265.17
2023-05-01T00:42:35.283Z,100274.35
2023-05-01T00:45:07.664Z,100282.54
2023-05-01T00:47:42.334Z,100284.68
2023-05-01T00:50:11.588Z,100280.37
2023-05-01T00:52:42.916Z,100273.70
2023-05-01T00:55:09.584Z,100269.02
2023-05-01T00:57:38.622Z,100269.73
2023-05-01T01:00:11.769Z,100270.09
2023-05-01T01:02:44.733Z,100273.17
2023-05-01T01:05:15.032Z,100267.71
2023-05-01T01:07:50.998Z,100272.61
2023-05-01T01:26:59.363Z,100280.16
2023-05-01T01:29:49.158Z,100279.70
2023-05-01T01:32:53.182Z,100282.16
2023-05-01T01:35:26.490Z,100282.33
2023-05-01T01:38:01.856Z,100283.80
2023-05-01T01:40:37.137Z,100269.65
2023-05-01T01:43:15.415Z,100265.70
2023-05-01T01:45:50.061Z,100257.24
2023-05-01T01:48:28.914Z,100253.74
2023-05-01T01:50:59.358Z,100249.08
2023-05-01T01:53:31.154Z,100253.73
2023-05-01T01:56:03.859Z,100261.29
2023-05-01T01:58:35.105Z,100250.13
2023-05-01T02:01:08.469Z,100243.95
2023-05-01T02:03:40.069Z,100249.81
2023-05-01T02:06:15.518Z,100250.70
2023-05-01T02:08:46.511Z,100257.64
2023-05-01T02:11:18.368Z,100254.02
2023-05-01T02:13:49.629Z,100251.81
2023-05-01T02:16:19.501Z,100245.50
2023-05-01T02:18:48.165Z,100242.19
2023-05-01T02:21:19.501Z,100242.67
2023-05-01T02:23:49.912Z,100246.42
2023-05-01T02:26:19.381Z,100250.36
2023-05-01T02:28:47.412Z,100239.77
2023-05-01T02:31:17.685Z,100241.21
2023-05-01T02:33:45.965Z,100242.66
2023-05-01T02:36:16.568Z,100243.31
2023-05-01T02:38:51.156Z,100244.75
2023-05-01T02:41:22.702Z,100240.13
2023-05-01T02:44:01.541Z,100237.33
2023-05-01T02:46:32.356Z,100237.60
2023-05-01T02:49:07.136Z,100231.13
2023-05-01T02:51:42.668Z,100228.90
2023-05-01T02:54:13.532Z,100230.42
2023-05-01T02:56:44.067Z,100229.51
2023-05-01T02:59:12.171Z,100234.08
2023-05-01T03:01:44.541Z,100236.80
2023-05-01T03:04:15.046Z,100234.85
2023-05-01T03:06:44.648Z,100229.52
2023-05-01T03:09:12.874Z,100222.20
2023-05-01T03:11:40.920Z,100218.61
2023-05-01T03:14:11.279Z,100229.64
2023-05-01T03:16:41.879Z,100224.75
2023-05-01T03:19:12.924Z,100225.38
2023-05-01T03:21:40.915Z,100229.77
2023-05-01T03:24:10.225Z,100229.63
2023-05-01T03:26:38.464Z,100222.23
2023-05-01T03:29:09.923Z,100222.58
2023-05-01T03:31:38.467Z,100228.21
2023-05-01T03:34:11.845Z,100226.27
2023-05-01T03:36:40.520Z,100224.14
2023-05-01T03:39:10.999Z,100225.88
2023-05-01T03:41:59.791Z,100233.80
2023-05-01T03:44:31.072Z,100235.81
2023-05-01T03:47:01.904Z,100239.35
2023-05-01T03:49:30.349Z,100235.43
2023-05-01T03:52:00.310Z,100238.48
2023-05-01T03:54:28.578Z,100236.70
2023-05-01T03:57:31.399Z,100233.30
2023-05-01T03:59:59.566Z,100227.17
2023-05-01T04:02:28.042Z,100221.24
2023-05-01T04:04:56.275Z,100218.23
2023-05-01T04:07:24.792Z,100217.62
2023-05-01T04:09:57.898Z,100209.67
2023-05-01T04:12:28.423Z,100212.27
2023-05-01T04:15:01.100Z,100213.67
2023-05-01T04:17:28.907Z,100210.86
2023-05-01T04:19:57.594Z,100211.47
2023-05-01T04:22:28.876Z,100210.61
2023-05-01T04:24:57.056Z,100208.13
2023-05-01T04:27:27.439Z,100204.71
2023-05-01T04:29:58.434Z,100204.15
2023-05-01T04:32:26.611Z,100201.80
2023-05-01T04:34:57.828Z,100206.00
2023-05-01T04:37:25.829Z,100194.23
2023-05-01T04:39:56.405Z,100194.75
2023-05-01T04:42:33.932Z,100195.80
2023-05-01T04:45:06.795Z,100195.17
2023-05-01T04:47:39.393Z,100194.98
2023-05-01T04:50:10.484Z,100201.23
2023-05-01T04:52:43.193Z,100201.47
2023-05-01T04:55:13.146Z,100199.47
2023-05-01T04:57:54.208Z,100207.50
2023-05-01T05:00:21.972Z,100209.68
2023-05-01T05:02:54.631Z,100214.48
2023-05-01T05:05:25.252Z,100217.70
2023-05-01T05:08:04.169Z,100218.70
2023-05-01T05:10:49.793Z,100216.93
2023-05-01T05:13:49.678Z,100208.42
2023-05-01T05:16:18.114Z,100197.33
2023-05-01T05:18:51.000Z,100194.39
2023-05-01T05:21:19.335Z,100183.10
2023-05-01T05:23:56.085Z,100176.81
2023-05-01T05:26:25.069Z,100179.98
2023-05-01T05:28:58.034Z,100166.70
2023-05-01T05:31:26.147Z,100169.73
2023-05-01T05:34:06.335Z,100164.34
2023-05-01T05:36:41.659Z,100160.72
2023-05-01T05:39:16.989Z,100154.36
2023-05-01T05:42:17.102Z,100153.77
2023-05-01T05:44:45.208Z,100147.39
2023-05-01T05:47:13.278Z,100143.71
2023-05-01T05:49:41.305Z,100144.74
2023-05-01T05:52:11.732Z,100145.35
2023-05-01T05:54:42.033Z,100142.40
2023-05-01T05:57:14.783Z,100139.41
2023-05-01T05:59:47.675Z,100139.80
2023-05-01T06:02:18.251Z,100143.82
2023-05-01T06:04:48.926Z,100140.21
2023-05-01T06:07:18.872Z,100136.15
2023-05-01T06:09:46.960Z,100132.30
2023-05-01T06:12:14.841Z,100129.40
2023-05-01T06:14:43.252Z,100122.08
2023-05-01T06:17:15.798Z,100115.61
2023-05-01T06:19:46.102Z,100119.30
2023-05-01T06:22:14.306Z,100114.64
2023-05-01T06:24:52.671Z,100113.79
2023-05-01T06:27:28.391Z,100112.17
2023-05-01T06:29:56.768Z,100117.00
2023-05-01T06:32:25.851Z,100105.04
2023-05-01T06:34:56.669Z,100093.85
2023-05-01T06:41:57.652Z,100086.77
2023-05-01T06:44:36.306Z,100088.52
2023-05-01T06:47:04.408Z,100089.63
2023-05-01T06:49:35.122Z,100083.09
2023-05-01T06:52:05.480Z,100068.13
2023-05-01T06:54:34.494Z,100067.88
2023-05-01T06:57:07.237Z,100064.75
2023-05-01T06:59:35.793Z,100062.95
2023-05-01T07:02:04.124Z,100061.98
2023-05-01T07:04:34.586Z,100066.07
2023-05-01T07:07:04.825Z,100062.30
2023-05-01T07:09:32.873Z,100063.20
2023-05-01T07:12:05.776Z,100061.86
2023-05-01T07:14:36.053Z,100051.34
2023-05-01T07:17:06.842Z,100045.75
2023-05-01T07:19:39.692Z,100038.48
2023-05-01T07:22:51.167Z,100037.20
2023-05-01T07:25:20.379Z,100047.96
2023-05-01T07:27:48.477Z,100031.95
2023-05-01T07:30:16.442Z,100030.79
2023-05-01T07:32:45.104Z,100023.90
2023-05-01T07:35:13.616Z,100016.14
2023-05-01T07:37:41.631Z,100018.19
2023-05-01T07:40:10.241Z,100019.00
2023-05-01T07:42:38.170Z,100018.38
2023-05-01T07:45:08.940Z,100014.48
2023-05-01T07:47:39.181Z,100018.08
2023-05-01T07:50:11.570Z,100013.12
2023-05-01T07:52:43.488Z,100011.20
2023-05-01T07:55:13.789Z,100007.52
2023-05-01T07:57:47.341Z,100006.00
2023-05-01T08:00:18.089Z,99998.61
2023-05-01T08:02:46.026Z,100008.35
2023-05-01T08:05:14.380Z,100003.30
2023-05-01T08:07:44.297Z,100002.30
2023-05-01T08:10:15.057Z,99999.40
2023-05-01T08:12:45.421Z,99996.90
2023-05-01T08:15:13.614Z,100000.00
2023-05-01T08:17:44.045Z,99996.50
2023-05-01T08:20:12.817Z,99998.23
2023-05-01T08:22:45.538Z,99999.75
2023-05-01T08:25:13.399Z,99994.99
2023-05-01T08:27:41.626Z,99991.13
2023-05-01T08:30:12.519Z,99992.72
2023-05-01T08:32:40.776Z,99992.33
2023-05-01T08:35:11.797Z,99988.40
2023-05-01T08:37:39.758Z,99993.93
2023-05-01T08:40:09.137Z,99995.92
2023-05-01T08:42:39.716Z,99987.58
2023-05-01T08:45:10.745Z,99985.38
2023-05-01T08:47:40.312Z,99980.10
2023-05-01T08:50:14.023Z,99985.11
2023-05-01T08:52:47.367Z,99983.67
2023-05-01T08:55:19.470Z,99978.02
2023-05-01T08:57:53.637Z,99974.02
2023-05-01T09:00:21.938Z,99974.86
2023-05-01T09:02:52.069Z,99972.61
2023-05-01T09:05:21.071Z,99972.65
2023-05-01T09:07:50.073Z,99975.99
2023-05-01T09:10:19.124Z,99966.78
2023-05-01T09:12:52.590Z,99967.50
2023-05-01T09:15:22.810Z,99965.13
2023-05-01T09:17:51.012Z,99966.52
2023-05-01T09:20:24.318Z,99965.59
2023-05-01T09:22:52.560Z,99958.36
2023-05-01T09:25:22.945Z,99966.13
2023-05-01T09:27:53.701Z,99961.82
2023-05-01T09:30:34.197Z,99954.69
2023-05-01T09:33:15.268Z,99954.98
2023-05-01T09:35:59.667Z,99945.91
2023-05-01T09:38:35.753Z,99945.88
2023-05-01T09:41:05.207Z,99947.84
2023-05-01T09:43:36.114Z,99943.95
2023-05-01T09:46:07.396Z,99939.33
2023-05-01T09:48:37.428Z,99936.14
2023-05-01T09:51:24.390Z,99940.01
2023-05-01T09:53:55.404Z,99937.10
2023-05-01T09:56:28.177Z,99933.70
2023-05-01T09:58:57.740Z,99931.61
2023-05-01T10:01:44.065Z,99933.32
2023-05-01T10:04:12.663Z,99931.63
2023-05-01T10:06:42.936Z,99927.20
2023-05-01T10:09:27.482Z,99921.01
2023-05-01T10:12:01.992Z,99916.14
2023-05-01T10:14:33.973Z,99917.11
2023-05-01T10:17:17.248Z,99915.55
2023-05-01T10:19:45.494Z,99918.35
2023-05-01T10:22:18.515Z,99911.42
2023-05-01T10:24:46.580Z,99908.04
2023-05-01T10:27:14.879Z,99909.39
2023-05-01T10:29:47.311Z,99902.90
2023-05-01T10:32:20.639Z,99892.31
2023-05-01T10:34:58.852Z,99894.12
2023-05-01T10:37:59.933Z,99880.10
2023-05-01T10:40:40.870Z,99885.42
2023-05-01T10:43:31.183Z,99881.23
2023-05-01T10:46:07.377Z,99874.86
2023-05-01T10:48:40.802Z,99876.00
2023-05-01T10:51:11.188Z,99879.80
2023-05-01T10:53:46.129Z,99875.64
2023-05-01T10:56:27.101Z,99871.89
2023-05-01T10:58:58.213Z,99869.79
2023-05-01T11:01:32.682Z,99868.04
2023-05-01T11:04:08.248Z,99859.88
2023-05-01T11:06:38.119Z,99861.17
2023-05-01T11:09:43.078Z,99862.13
2023-05-01T11:12:12.947Z,99856.40
2023-05-01T11:15:05.600Z,99866.58
2023-05-01T11:17:42.459Z,99860.31
2023-05-01T11:20:29.151Z,99853.09
2023-05-01T11:22:57.886Z,99845.34
2023-05-01T11:25:32.480Z,99837.36
2023-05-01T11:28:07.183Z,99832.23
2023-05-01T11:30:39.936Z,99828.84
2023-05-01T11:33:11.171Z,99827.11
2023-05-01T11:35:42.077Z,99823.52
2023-05-01T11:38:19.057Z,99824.54
2023-05-01T11:40:55.893Z,99818.45
2023-05-01T11:43:23.756Z,99817.01
2023-05-01T11:46:05.794Z,99810.55
2023-05-01T11:49:37.615Z,99809.40
2023-05-01T11:51:59.327Z,99798.38
2023-05-01T11:54:29.810Z,99790.22
2023-05-01T11:57:02.339Z,99788.16
2023-05-01T11:59:34.955Z,99779.64
2023-05-01T12:02:05.085Z,99784.25
2023-05-01T12:04:58.766Z,99780.17
2023-05-01T12:07:27.356Z,99779.75
2023-05-01T12:10:01.413Z,99774.69
2023-05-01T12:12:29.835Z,99780.62
2023-05-01T12:15:19.207Z,99777.46
2023-05-01T12:17:57.267Z,99771.33
2023-05-01T12:20:54.590Z,99764.04
2023-05-01T12:23:46.241Z,99764.84
2023-05-01T12:26:25.790Z,99760.98
2023-05-01T12:28:56.693Z,99757.41
2023-05-01T12:31:31.610Z,99762.65
2023-05-01T12:34:06.666Z,99749.45
2023-05-01T12:36:37.834Z,99750.75
2023-05-01T12:39:12.448Z,99753.27
2023-05-01T12:42:03.968Z,99746.16
2023-05-01T12:44:58.776Z,99742.31
2023-05-01T12:47:27.029Z,99736.95
2023-05-01T12:50:03.428Z,99729.55
2023-05-01T12:52:35.432Z,99718.70
2023-05-01T12:55:10.635Z,99720.54
2023-05-01T12:57:54.186Z,99714.02
2023-05-01T13:00:26.875Z,99708.35
2023-05-01T13:03:14.815Z,99705.80
2023-05-01T13:06:06.068Z,99705.91
2023-05-01T13:08:41.671Z,99700.66
2023-05-01T13:37:21.280Z,99668.09
2023-05-01T13:39:49.464Z,99659.32
2023-05-01T13:42:27.133Z,99655.35
2023-05-01T13:44:57.214Z,99651.50
2023-05-01T13:47:27.052Z,99652.42
2023-05-01T13:49:55.896Z,99648.14
2023-05-01T13:52:28.982Z,99643.53
2023-05-01T13:55:03.393Z,99645.65
2023-05-01T13:57:41.541Z,99640.77
2023-05-01T14:00:17.537Z,99631.28
2023-05-01T14:02:50.113Z,99625.42
2023-05-01T14:05:28.065Z,99622.50
2023-05-01T14:08:02.335Z,99624.89
2023-05-01T14:10:35.000Z,99618.39
2023-05-01T14:13:05.295Z,99620.73
2023-05-01T14:15:36.169Z,99618.06
2023-05-01T14:18:07.994Z,99612.42
2023-05-01T14:20:35.884Z,99612.54
2023-05-01T14:23:06.091Z,99603.10
2023-05-01T14:25:48.243Z,99602.34
2023-05-01T14:28:16.903Z,99604.63
2023-05-01T14:30:51.068Z,99598.27
2023-05-01T14:33:18.952Z,99596.92
2023-05-01T14:35:51.264Z,99594.48
2023-05-01T14:38:21.347Z,99591.77
2023-05-01T14:40:54.383Z,99589.48
2023-05-01T14:43:22.554Z,99586.61
2023-05-01T14:45:55.128Z,99579.67
2023-05-01T14:48:37.092Z,99576.58
2023-05-01T14:51:08.282Z,99573.05
2023-05-01T14:53:40.472Z,99571.52
2023-05-01T14:56:08.981Z,99570.54
2023-05-01T14:58:39.325Z,99567.84
2023-05-01T15:01:07.381Z,99561.83
2023-05-01T15:03:55.719Z,99559.33
2023-05-01T15:06:24.961Z,99557.94
2023-05-01T15:08:55.371Z,99564.02
2023-05-01T15:11:25.936Z,99567.60
2023-05-01T15:13:54.525Z,99566.50
2023-05-01T15:16:22.413Z,99563.63
2023-05-01T15:18:51.648Z,99561.78
2023-05-01T15:21:26.376Z,99557.55
2023-05-01T15:23:54.243Z,99554.83
2023-05-01T15:26:29.857Z,99549.19
2023-05-01T15:29:00.250Z,99545.11
2023-05-01T15:31:28.423Z,99543.16
2023-05-01T15:33:58.633Z,99541.58
2023-05-01T15:36:27.022Z,99545.92
2023-05-01T15:38:57.450Z,99539.69
2023-05-01T15:41:25.605Z,99535.88
2023-05-01T15:43:55.709Z,99531.66
2023-05-01T15:46:25.368Z,99524.27
2023-05-01T15:48:53.575Z,99524.11
2023-05-01T15:51:21.760Z,99523.13
2023-05-01T15:53:49.791Z,99523.41
2023-05-01T15:56:17.743Z,99520.64
2023-05-01T15:58:45.545Z,99524.38
2023-05-01T16:01:18.216Z,99524.16
2023-05-01T16:03:48.028Z,99519.45
2023-05-01T16:06:18.374Z,99518.14
2023-05-01T16:08:46.167Z,99520.80
2023-05-01T16:11:14.029Z,99515.83
2023-05-01T16:13:42.867Z,99516.69
2023-05-01T16:16:20.028Z,99518.21
2023-05-01T16:18:55.986Z,99515.06
2023-05-01T16:21:41.088Z,99517.72
2023-05-01T16:24:10.348Z,99519.90
2023-05-01T16:26:41.839Z,99518.60
2023-05-01T16:29:13.847Z,99518.11
2023-05-01T16:31:47.392Z,99518.39
2023-05-01T16:34:19.794Z,99515.87
2023-05-01T16:36:52.489Z,99516.14
2023-05-01T16:39:25.438Z,99517.39
2023-05-01T16:41:56.967Z,99516.19
2023-05-01T16:44:36.736Z,99515.06
2023-05-01T16:47:07.237Z,99513.38
2023-05-01T16:49:36.449Z,99516.80
2023-05-01T16:52:06.925Z,99515.34
2023-05-01T16:54:37.050Z,99512.20
2023-05-01T16:57:07.315Z,99517.24
2023-05-01T16:59:37.981Z,99512.58
2023-05-01T17:02:06.917Z,99515.77
2023-05-01T17:04:35.017Z,99514.91
2023-05-01T17:07:08.090Z,99514.80
2023-05-01T17:09:40.927Z,99513.77
2023-05-01T17:12:11.157Z,99515.30
2023-05-01T17:14:41.447Z,99512.25
2023-05-01T17:17:11.444Z,99509.27
2023-05-01T17:19:39.645Z,99510.52
2023-05-01T17:22:10.072Z,99508.13
2023-05-01T17:24:41.256Z,99513.94
2023-05-01T17:27:13.667Z,99511.02
2023-05-01T17:29:46.884Z,99511.29
2023-05-01T17:32:25.848Z,99516.27
2023-05-01T17:35:01.540Z,99514.32
2023-05-01T17:37:32.264Z,99515.73
2023-05-01T17:40:03.985Z,99511.92
2023-05-01T17:42:35.096Z,99509.59
2023-05-01T17:45:07.577Z,99509.04
2023-05-01T17:47:36.306Z,99513.69
2023-05-01T17:50:08.257Z,99512.90
2023-05-01T17:52:38.582Z,99510.46
2023-05-01T17:55:07.537Z,99516.03
2023-05-01T17:57:37.931Z,99523.39
2023-05-01T18:00:14.680Z,99525.91
2023-05-01T18:02:44.908Z,99524.88
2023-05-01T18:05:13.746Z,99523.62
2023-05-01T18:07:46.678Z,99524.41
2023-05-01T18:10:16.874Z,99527.80
2023-05-01T18:12:49.893Z,99525.67
2023-05-01T18:15:23.238Z,99530.63
2023-05-01T18:17:51.600Z,99529.30
2023-05-01T18:20:19.959Z,99532.78
2023-05-01T18:22:47.864Z,99525.83
2023-05-01T18:25:35.134Z,99520.55
2023-05-01T18:28:27.811Z,99525.29
2023-05-01T18:30:55.816Z,99524.33
2023-05-01T18:33:23.778Z,99517.29
2023-05-01T18:35:52.174Z,99514.62
2023-05-01T18:38:20.484Z,99512.50
2023-05-01T18:40:48.847Z,99514.77
2023-05-01T18:43:19.868Z,99515.94
2023-05-01T18:45:52.186Z,99513.45
2023-05-01T18:48:20.945Z,99517.15
2023-05-01T18:51:00.779Z,99508.14
2023-05-01T18:53:43.301Z,99518.92
2023-05-01T18:56:15.639Z,99519.50
2023-05-01T18:58:43.725Z,99519.46
2023-05-01T19:01:11.802Z,99528.67
2023-05-01T19:03:40.509Z,99528.70
2023-05-01T19:06:11.279Z,99531.27
2023-05-01T19:08:39.333Z,99536.34
2023-05-01T19:11:07.483Z,99534.04
2023-05-01T19:13:37.669Z,99535.63
2023-05-01T19:16:05.900Z,99534.54
2023-05-01T19:18:41.201Z,99538.39
2023-05-01T19:21:11.110Z,99542.80
2023-05-01T19:23:43.252Z,99539.89
2023-05-01T19:26:15.574Z,99541.96
2023-05-01T19:28:45.878Z,99545.85
2023-05-01T19:31:18.954Z,99539.34
2023-05-01T19:33:53.840Z,99538.86
2023-05-01T19:36:26.204Z,99543.80
2023-05-01T19:38:54.442Z,99540.17
2023-05-01T19:41:29.633Z,99543.59
2023-05-01T19:44:02.573Z,99539.04
2023-05-01T19:46:30.617Z,99541.08
2023-05-01T19:48:58.523Z,99541.95
2023-05-01T19:51:31.629Z,99546.27
2023-05-01T19:53:59.648Z,99551.63
2023-05-01T19:56:30.038Z,99557.72
2023-05-01T19:59:00.247Z,99562.84
2023-05-01T20:01:31.428Z,99561.36
2023-05-01T20:03:59.346Z,99559.66
2023-05-01T20:06:29.932Z,99556.17
2023-05-01T20:09:00.032Z,99553.79
2023-05-01T20:11:28.443Z,99544.13
2023-05-01T20:13:56.590Z,99538.55
2023-05-01T20:16:24.811Z,99540.54
2023-05-01T20:18:56.375Z,99541.23
2023-05-01T20:21:27.079Z,99542.52
2023-05-01T20:24:00.147Z,99536.14
2023-05-01T20:26:30.362Z,99533.86
2023-05-01T20:28:58.693Z,99529.22
2023-05-01T20:31:29.768Z,99527.64
2023-05-01T20:34:01.166Z,99523.14
2023-05-01T20:36:32.527Z,99524.25
2023-05-01T20:39:00.507Z,99522.11
2023-05-01T20:41:29.292Z,99524.88
2023-05-01T20:43:57.121Z,99532.23
2023-05-01T20:46:25.454Z,99528.79
2023-05-01T20:48:56.074Z,99524.66
2023-05-01T20:51:27.483Z,99526.45
2023-05-01T20:53:57.614Z,99523.39
2023-05-01T20:56:25.855Z,99527.19
2023-05-01T20:59:00.303Z,99535.27
2023-05-01T21:01:32.486Z,99545.73
2023-05-01T21:04:06.634Z,99537.50
2023-05-01T21:06:36.986Z,99534.81
2023-05-01T21:09:10.989Z,99537.16
2023-05-01T21:11:44.199Z,99534.35
2023-05-01T21:14:12.220Z,99537.48
2023-05-01T21:16:40.808Z,99543.48
2023-05-01T21:19:11.227Z,99542.83
2023-05-01T21:21:39.197Z,99536.59
2023-05-01T21:24:20.332Z,99531.89
2023-05-01T21:26:50.760Z,99531.95
2023-05-01T21:29:20.784Z,99539.11
2023-05-01T21:31:51.382Z,99537.41
2023-05-01T21:34:21.590Z,99545.70
2023-05-01T21:36:52.251Z,99537.94
2023-05-01T21:39:24.666Z,99541.52
2023-05-01T21:41:52.565Z,99544.91
2023-05-01T21:44:28.123Z,99540.47
2023-05-01T21:47:00.576Z,99545.48
2023-05-01T21:49:28.560Z,99548.90
2023-05-01T21:52:01.916Z,99552.50
2023-05-01T21:54:30.786Z,99557.55
2023-05-01T21:56:59.979Z,99550.70
2023-05-01T21:59:38.575Z,99542.39
2023-05-01T22:02:10.868Z,99542.23
2023-05-01T22:04:44.256Z,99542.45
2023-05-01T22:07:14.475Z,99542.73
2023-05-01T22:09:42.284Z,99539.55
2023-05-01T22:12:12.203Z,99536.98
2023-05-01T22:14:47.241Z,99534.98
2023-05-01T22:17:24.073Z,99537.19
2023-05-01T22:19:54.744Z,99539.34
2023-05-01T22:22:25.881Z,99537.00
2023-05-01T22:24:53.828Z,99532.91
2023-05-01T22:27:22.274Z,99533.95
2023-05-01T22:29:50.351Z,99532.27
2023-05-01T22:32:18.296Z,99533.73
2023-05-01T22:34:48.730Z,99534.77
2023-05-01T22:37:19.602Z,99530.23
2023-05-01T22:39:47.652Z,99528.65
2023-05-01T22:42:21.371Z,99530.08
2023-05-01T22:44:49.533Z,99527.59
2023-05-01T22:47:17.567Z,99526.85
2023-05-01T22:49:47.799Z,99527.56
2023-05-01T22:52:16.628Z,99525.28
2023-05-01T22:54:52.686Z,99527.39
2023-05-01T22:57:20.558Z,99524.45
2023-05-01T22:59:48.767Z,99523.36
2023-05-01T23:02:19.938Z,99527.19
2023-05-01T23:04:48.238Z,99525.56
2023-05-01T23:07:18.789Z,99524.41
2023-05-01T23:09:47.300Z,99527.02
2023-05-01T23:12:22.724Z,99524.77
2023-05-01T23:14:50.703Z,99518.05
2023-05-01T23:17:18.577Z,99519.20
2023-05-01T23:19:46.497Z,99518.73
2023-05-01T23:22:17.917Z,99516.23
2023-05-01T23:24:50.898Z,99513.92
2023-05-01T23:27:22.675Z,99513.88
2023-05-01T23:29:56.579Z,99515.84
2023-05-01T23:32:27.955Z,99517.88
2023-05-01T23:35:01.185Z,99525.66
2023-05-01T23:37:31.471Z,99522.23
2023-05-01T23:40:00.061Z,99526.77
2023-05-01T23:42:31.125Z,99522.38
2023-05-01T23:45:04.740Z,99518.36
2023-05-01T23:47:33.132Z,99516.23
2023-05-01T23:50:06.094Z,99511.98
2023-05-01T23:52:36.266Z,99510.20
2023-05-01T23:55:06.690Z,99511.90
2023-05-01T23:57:37.270Z,99511.44
